createdAt,value
2022-11-05T00:00:41.149Z,10.40
2022-11-05T00:03:27.233Z,10.40
2022-11-05T00:06:13.140Z,10.30
2022-11-05T00:08:59.770Z,10.30
2022-11-05T00:11:45.843Z,10.30
2022-11-05T00:14:31.965Z,10.30
2022-11-05T00:16:59.381Z,10.30
2022-11-05T00:19:26.690Z,10.30
2022-11-05T00:22:15.940Z,10.30
2022-11-05T00:25:01.593Z,10.30
2022-11-05T00:27:28.696Z,10.20
2022-11-05T00:29:55.722Z,10.20
2022-11-05T00:32:22.893Z,10.20
2022-11-05T00:34:49.984Z,10.20
2022-11-05T00:37:19.461Z,10.20
2022-11-05T00:39:48.594Z,10.20
2022-11-05T00:42:34.265Z,10.20
2022-11-05T00:45:01.428Z,10.10
2022-11-05T00:47:50.064Z,10.20
2022-11-05T00:50:18.837Z,10.10
2022-11-05T00:52:57.187Z,10.10
2022-11-05T00:55:39.133Z,10.10
2022-11-05T00:58:09.816Z,10.10
2022-11-05T01:00:45.780Z,10.10
2022-11-05T01:03:17.338Z,10.10
2022-11-05T01:05:49.957Z,10.10
2022-11-05T01:08:20.029Z,10.10
2022-11-05T01:10:50.329Z,10.10
2022-11-05T01:13:23.771Z,10.10
2022-11-05T01:15:54.202Z,10.10
2022-11-05T01:18:24.441Z,10.10
2022-11-05T01:20:56.285Z,10.00
2022-11-05T01:23:23.381Z,10.00
2022-11-05T01:25:50.668Z,10.10
2022-11-05T01:28:20.192Z,10.00
2022-11-05T01:30:55.723Z,10.00
2022-11-05T01:33:23.091Z,10.00
2022-11-05T01:35:51.771Z,10.00
2022-11-05T01:38:21.705Z,10.00
2022-11-05T01:40:48.808Z,10.00
2022-11-05T01:43:21.291Z,10.00
2022-11-05T01:45:52.556Z,10.00
2022-11-05T01:48:29.414Z,9.90
2022-11-05T01:51:09.943Z,9.90
2022-11-05T01:53:41.641Z,9.90
2022-11-05T01:56:18.124Z,9.80
2022-11-05T01:58:45.269Z,9.80
2022-11-05T02:01:12.773Z,9.80
2022-11-05T02:03:42.986Z,9.80
2022-11-05T02:06:11.368Z,9.80
2022-11-05T02:09:05.694Z,9.70
2022-11-05T02:11:33.633Z,9.70
2022-11-05T02:14:00.762Z,9.70
2022-11-05T02:16:48.841Z,9.70
2022-11-05T02:19:33.784Z,9.60
2022-11-05T02:22:27.762Z,9.60
2022-11-05T02:25:21.694Z,9.60
2022-11-05T02:28:03.846Z,9.50
2022-11-05T02:30:51.447Z,9.50
2022-11-05T02:33:31.247Z,9.50
2022-11-05T02:36:21.549Z,9.50
2022-11-05T02:39:03.670Z,9.50
2022-11-05T02:42:04.518Z,9.40
2022-11-05T02:44:56.974Z,9.40
2022-11-05T02:47:47.978Z,9.40
2022-11-05T02:50:36.379Z,9.30
2022-11-05T02:53:12.191Z,9.30
2022-11-05T02:55:45.119Z,9.30
2022-11-05T02:58:14.347Z,9.30
2022-11-05T03:00:52.568Z,9.20
2022-11-05T03:03:47.498Z,9.20
2022-11-05T03:06:23.687Z,9.20
2022-11-05T03:08:58.634Z,9.20
2022-11-05T03:11:29.057Z,9.20
2022-11-05T03:14:24.745Z,9.10
2022-11-05T03:17:14.102Z,9.10
2022-11-05T03:19:57.158Z,9.10
2022-11-05T03:22:30.171Z,9.00
2022-11-05T03:25:03.997Z,9.00
2022-11-05T03:27:35.009Z,9.00
2022-11-05T03:30:11.452Z,8.90
2022-11-05T03:32:46.622Z,8.90
2022-11-05T03:35:24.159Z,8.90
2022-11-05T03:37:56.895Z,8.90
2022-11-05T03:40:25.154Z,8.90
2022-11-05T03:42:56.733Z,8.80
2022-11-05T03:45:30.796Z,8.80
2022-11-05T03:48:01.267Z,8.80
2022-11-05T03:50:46.384Z,8.80
2022-11-05T03:53:22.611Z,8.80
2022-11-05T03:56:09.246Z,8.80
2022-11-05T03:58:39.309Z,8.80
2022-11-05T04:01:06.409Z,8.70
2022-11-05T04:03:36.477Z,8.70
2022-11-05T04:06:26.927Z,8.70
2022-11-05T04:09:13.189Z,8.70
2022-11-05T04:11:59.001Z,8.70
2022-11-05T04:14:29.219Z,8.60
2022-11-05T04:17:11.640Z,8.60
2022-11-05T04:20:02.043Z,8.60
2022-11-05T04:22:52.141Z,8.60
2022-11-05T04:25:20.616Z,8.60
2022-11-05T04:27:48.465Z,8.60
2022-11-05T04:30:21.604Z,8.60
2022-11-05T04:32:59.438Z,8.50
2022-11-05T04:35:28.566Z,8.50
2022-11-05T04:37:55.846Z,8.50
2022-11-05T04:40:23.408Z,8.40
2022-11-05T04:42:50.512Z,8.50
2022-11-05T04:45:19.668Z,8.50
2022-11-05T04:47:46.772Z,8.50
2022-11-05T04:50:16.245Z,8.50
2022-11-05T04:52:43.430Z,8.40
2022-11-05T04:55:10.901Z,8.40
2022-11-05T04:57:38.061Z,8.40
2022-11-05T05:00:07.407Z,8.40
2022-11-05T05:02:36.141Z,8.40
2022-11-05T05:05:03.820Z,8.30
2022-11-05T05:07:31.723Z,8.30
2022-11-05T05:09:58.898Z,8.30
2022-11-05T05:12:26.032Z,8.30
2022-11-05T05:14:55.460Z,8.30
2022-11-05T05:17:23.124Z,8.30
2022-11-05T05:20:09.104Z,8.30
2022-11-05T05:22:36.566Z,8.30
2022-11-05T05:25:04.595Z,8.30
2022-11-05T05:27:31.723Z,8.30
2022-11-05T05:29:59.809Z,8.30
2022-11-05T05:32:29.429Z,8.30
2022-11-05T05:34:56.674Z,8.30
2022-11-05T05:37:23.828Z,8.20
2022-11-05T05:39:50.957Z,8.20
2022-11-05T05:42:18.059Z,8.20
2022-11-05T05:44:45.154Z,8.20
2022-11-05T05:47:13.270Z,8.20
2022-11-05T05:49:40.325Z,8.20
2022-11-05T05:52:07.740Z,8.20
2022-11-05T05:54:39.736Z,8.20
2022-11-05T05:57:09.558Z,8.10
2022-11-05T05:59:36.809Z,8.10
2022-11-05T06:02:06.017Z,8.10
2022-11-05T06:04:33.237Z,8.10
2022-11-05T06:07:00.303Z,8.10
2022-11-05T06:09:29.763Z,8.10
2022-11-05T06:11:56.877Z,8.10
2022-11-05T06:14:23.962Z,8.00
2022-11-05T06:16:51.159Z,8.00
2022-11-05T06:19:18.470Z,8.00
2022-11-05T06:21:46.000Z,8.00
2022-11-05T06:24:13.198Z,8.00
2022-11-05T06:26:43.265Z,8.00
2022-11-05T06:29:10.686Z,7.90
2022-11-05T06:31:37.790Z,7.90
2022-11-05T06:34:07.091Z,7.90
2022-11-05T06:36:34.200Z,7.90
2022-11-05T06:39:05.948Z,7.90
2022-11-05T06:41:45.647Z,7.90
2022-11-05T06:44:22.554Z,7.90
2022-11-05T06:46:49.783Z,7.90
2022-11-05T06:49:19.060Z,7.90
2022-11-05T06:51:46.088Z,7.90
2022-11-05T06:54:13.253Z,7.90
2022-11-05T06:56:40.373Z,7.90
2022-11-05T06:59:08.531Z,7.90
2022-11-05T07:01:38.325Z,7.90
2022-11-05T07:04:05.550Z,7.90
2022-11-05T07:06:37.076Z,7.90
2022-11-05T07:09:06.861Z,7.90
2022-11-05T07:11:34.010Z,7.90
2022-11-05T07:14:01.354Z,7.90
2022-11-05T07:16:28.517Z,7.90
2022-11-05T07:18:57.655Z,8.00
2022-11-05T07:21:24.848Z,7.90
2022-11-05T07:23:51.985Z,8.00
2022-11-05T07:26:19.126Z,8.00
2022-11-05T07:28:46.288Z,8.00
2022-11-05T07:31:13.381Z,8.00
2022-11-05T07:33:40.952Z,8.00
2022-11-05T07:36:10.816Z,8.00
2022-11-05T07:38:37.837Z,8.00
2022-11-05T07:41:05.119Z,8.10
2022-11-05T07:43:32.249Z,8.10
2022-11-05T07:45:59.533Z,8.10
2022-11-05T07:48:26.635Z,8.10
2022-11-05T07:50:53.796Z,8.10
2022-11-05T07:53:23.197Z,8.20
2022-11-05T07:55:52.535Z,8.20
2022-11-05T07:58:19.599Z,8.20
2022-11-05T08:00:46.790Z,8.20
2022-11-05T08:03:16.485Z,8.30
2022-11-05T08:05:46.506Z,8.30
2022-11-05T08:08:18.642Z,8.30
2022-11-05T08:10:46.279Z,8.40
2022-11-05T08:13:17.160Z,8.40
2022-11-05T08:15:44.979Z,8.40
2022-11-05T08:18:17.248Z,8.40
2022-11-05T08:20:46.817Z,8.50
2022-11-05T08:23:14.786Z,8.50
2022-11-05T08:25:42.336Z,8.50
2022-11-05T08:28:12.855Z,8.60
2022-11-05T08:30:40.386Z,8.60
2022-11-05T08:33:10.722Z,8.70
2022-11-05T08:35:39.653Z,8.70
2022-11-05T08:38:08.169Z,8.70
2022-11-05T08:40:38.638Z,8.80
2022-11-05T08:43:07.563Z,8.90
2022-11-05T08:49:40.302Z,9.20
2022-11-05T08:52:07.391Z,9.30
2022-11-05T08:54:39.246Z,9.40
2022-11-05T08:57:06.311Z,9.50
2022-11-05T08:59:35.748Z,9.60
2022-11-05T09:02:03.023Z,9.70
2022-11-05T09:04:30.616Z,9.70
2022-11-05T09:06:57.728Z,9.80
2022-11-05T09:09:27.203Z,9.90
2022-11-05T09:14:41.347Z,10.00
2022-11-05T09:17:19.360Z,10.00
2022-11-05T09:19:46.827Z,10.00
2022-11-05T09:22:14.603Z,10.10
2022-11-05T09:24:43.066Z,10.10
2022-11-05T09:27:14.619Z,10.20
2022-11-05T09:29:42.514Z,10.20
2022-11-05T09:32:09.876Z,10.20
2022-11-05T09:34:37.055Z,10.20
2022-11-05T09:37:04.174Z,10.30
2022-11-05T09:39:31.261Z,10.30
2022-11-05T09:42:06.687Z,10.40
2022-11-05T09:44:42.957Z,10.50
2022-11-05T09:47:18.634Z,10.60
2022-11-05T09:49:50.359Z,10.60
2022-11-05T09:52:23.654Z,10.60
2022-11-05T09:54:51.528Z,10.70
2022-11-05T09:57:44.144Z,10.70
2022-11-05T10:00:18.097Z,10.80
2022-11-05T10:02:56.504Z,10.90
2022-11-05T10:05:26.040Z,10.90
2022-11-05T10:08:45.202Z,11.00
2022-11-05T10:11:23.534Z,11.10
2022-11-05T10:14:20.484Z,11.10
2022-11-05T10:16:59.483Z,11.20
2022-11-05T10:19:36.953Z,11.20
2022-11-05T10:22:18.851Z,11.30
2022-11-05T10:24:51.183Z,11.30
2022-11-05T10:27:25.278Z,11.30
2022-11-05T10:29:57.398Z,11.40
2022-11-05T10:32:35.393Z,11.50
2022-11-05T10:35:05.687Z,11.50
2022-11-05T10:37:38.222Z,11.60
2022-11-05T10:40:14.107Z,11.70
2022-11-05T10:43:07.910Z,11.70
2022-11-05T10:45:58.221Z,11.80
2022-11-05T10:48:43.613Z,11.80
2022-11-05T10:51:11.694Z,11.90
2022-11-05T10:53:39.846Z,11.90
2022-11-05T10:56:36.495Z,11.90
2022-11-05T10:59:11.804Z,12.00
2022-11-05T11:01:39.954Z,12.00
2022-11-05T11:04:22.913Z,12.00
2022-11-05T11:06:53.665Z,12.00
2022-11-05T11:09:24.920Z,12.10
2022-11-05T11:12:17.083Z,12.10
2022-11-05T11:15:02.258Z,12.20
2022-11-05T11:17:31.542Z,12.30
2022-11-05T11:20:24.330Z,12.30
2022-11-05T11:23:09.775Z,12.40
2022-11-05T11:26:12.561Z,12.50
2022-11-05T11:29:07.222Z,12.50
2022-11-05T11:31:40.595Z,12.60
2022-11-05T11:34:23.855Z,12.70
2022-11-05T11:36:54.179Z,12.80
2022-11-05T11:39:27.565Z,12.80
2022-11-05T11:42:03.594Z,12.90
2022-11-05T11:44:36.707Z,12.90
2022-11-05T11:47:09.583Z,13.00
2022-11-05T11:49:46.109Z,13.00
2022-11-05T11:52:34.085Z,13.00
2022-11-05T11:55:18.990Z,13.10
2022-11-05T11:57:49.548Z,13.10
2022-11-05T12:00:18.089Z,13.10
2022-11-05T12:03:02.014Z,13.10
2022-11-05T12:05:41.348Z,13.10
2022-11-05T12:08:34.741Z,13.20
2022-11-05T12:11:18.630Z,13.20
2022-11-05T12:14:17.633Z,13.20
2022-11-05T12:17:08.438Z,13.30
2022-11-05T12:19:47.623Z,13.30
2022-11-05T12:22:47.878Z,13.30
2022-11-05T12:25:21.978Z,13.40
2022-11-05T12:27:52.092Z,13.40
2022-11-05T12:30:21.323Z,13.50
2022-11-05T12:33:04.625Z,13.50
2022-11-05T12:36:13.169Z,13.60
2022-11-05T12:39:04.577Z,13.60
2022-11-05T12:42:04.275Z,13.60
2022-11-05T12:44:46.335Z,13.60
2022-11-05T12:47:42.107Z,13.70
2022-11-05T12:50:27.818Z,13.70
2022-11-05T12:53:12.944Z,13.80
2022-11-05T12:55:48.713Z,13.80
2022-11-05T12:58:27.859Z,13.80
2022-11-05T13:01:11.447Z,13.90
2022-11-05T13:03:47.902Z,13.90
2022-11-05T13:06:28.218Z,13.90
2022-11-05T13:09:02.213Z,13.90
2022-11-05T13:11:39.970Z,14.00
2022-11-05T13:14:47.385Z,14.00
2022-11-05T13:17:24.288Z,14.00
2022-11-05T13:19:57.287Z,14.00
2022-11-05T13:22:38.190Z,14.10
2022-11-05T13:25:13.918Z,14.10
2022-11-05T13:28:05.289Z,14.10
2022-11-05T13:30:38.128Z,14.20
2022-11-05T13:33:11.334Z,14.10
2022-11-05T13:36:16.888Z,14.10
2022-11-05T13:39:02.544Z,14.10
2022-11-05T13:41:41.836Z,14.10
2022-11-05T13:44:22.880Z,14.10
2022-11-05T13:47:28.547Z,14.20
2022-11-05T13:50:37.273Z,14.20
2022-11-05T13:53:10.788Z,14.20
2022-11-05T13:55:56.250Z,14.20
2022-11-05T13:58:52.500Z,14.30
2022-11-05T14:01:25.249Z,14.30
2022-11-05T14:03:54.579Z,14.30
2022-11-05T14:06:33.272Z,14.30
2022-11-05T14:09:08.455Z,14.30
2022-11-05T14:11:40.386Z,14.40
2022-11-05T14:14:17.452Z,14.40
2022-11-05T14:16:47.467Z,14.40
2022-11-05T14:19:20.649Z,14.50
2022-11-05T14:21:53.047Z,14.50
2022-11-05T14:24:23.184Z,14.50
2022-11-05T14:27:02.421Z,14.50
2022-11-05T14:29:40.062Z,14.60
2022-11-05T14:32:25.093Z,14.60
2022-11-05T14:35:23.041Z,14.60
2022-11-05T14:37:59.863Z,14.60
2022-11-05T14:40:38.400Z,14.50
2022-11-05T14:43:24.431Z,14.60
2022-11-05T14:46:00.573Z,14.60
2022-11-05T14:48:37.631Z,14.60
2022-11-05T14:51:33.863Z,14.60
2022-11-05T14:54:04.713Z,14.60
2022-11-05T14:56:54.913Z,14.60
2022-11-05T14:59:29.128Z,14.50
2022-11-05T15:02:00.931Z,14.50
2022-11-05T15:04:33.521Z,14.50
2022-11-05T15:07:03.564Z,14.50
2022-11-05T15:09:53.993Z,14.50
2022-11-05T15:12:39.930Z,14.50
2022-11-05T15:15:21.444Z,14.50
2022-11-05T15:18:21.444Z,14.40
2022-11-05T15:20:51.458Z,14.40
2022-11-05T15:23:24.915Z,14.40
2022-11-05T15:26:12.849Z,14.40
2022-11-05T15:28:50.887Z,14.40
2022-11-05T15:31:41.232Z,14.30
2022-11-05T15:34:24.661Z,14.30
2022-11-05T15:37:03.056Z,14.30
2022-11-05T15:39:41.709Z,14.30
2022-11-05T15:42:17.300Z,14.20
2022-11-05T15:44:52.912Z,14.20
2022-11-05T15:47:24.171Z,14.20
2022-11-05T15:49:55.661Z,14.20
2022-11-05T15:52:36.438Z,14.10
2022-11-05T15:55:10.367Z,14.10
2022-11-05T15:57:40.336Z,14.10
2022-11-05T16:00:25.134Z,14.10
2022-11-05T16:03:32.460Z,14.10
2022-11-05T16:06:01.090Z,14.00
2022-11-05T16:08:30.463Z,14.00
2022-11-05T16:10:59.665Z,14.00
2022-11-05T16:13:35.416Z,14.00
2022-11-05T16:16:24.842Z,14.00
2022-11-05T16:18:52.748Z,14.00
2022-11-05T16:21:22.761Z,13.90
2022-11-05T16:23:51.981Z,13.90
2022-11-05T16:27:00.756Z,13.90
2022-11-05T16:29:34.934Z,13.90
2022-11-05T16:32:05.262Z,13.90
2022-11-05T16:34:35.482Z,13.90
2022-11-05T16:37:04.313Z,13.80
2022-11-05T16:39:31.933Z,13.80
2022-11-05T16:41:59.173Z,13.80
2022-11-05T16:44:26.349Z,13.70
2022-11-05T16:46:53.536Z,13.70
2022-11-05T16:49:20.978Z,13.70
2022-11-05T16:51:48.043Z,13.70
2022-11-05T16:54:15.150Z,13.60
2022-11-05T16:56:43.856Z,13.60
2022-11-05T16:59:13.342Z,13.60
2022-11-05T17:01:43.044Z,13.50
2022-11-05T17:04:13.457Z,13.50
2022-11-05T17:06:40.688Z,13.50
2022-11-05T17:09:07.786Z,13.50
2022-11-05T17:11:35.124Z,13.50
2022-11-05T17:14:02.227Z,13.40
2022-11-05T17:16:30.314Z,13.40
2022-11-05T17:18:57.422Z,13.40
2022-11-05T17:21:24.606Z,13.40
2022-11-05T17:23:51.796Z,13.40
2022-11-05T17:26:18.899Z,13.30
2022-11-05T17:28:46.004Z,13.30
2022-11-05T17:31:14.028Z,13.30
2022-11-05T17:33:41.759Z,13.30
2022-11-05T17:36:16.256Z,13.30
2022-11-05T17:38:43.629Z,13.30
2022-11-05T17:41:12.694Z,13.30
2022-11-05T17:43:42.492Z,13.30
2022-11-05T17:46:11.833Z,13.30
2022-11-05T17:48:39.755Z,13.20
2022-11-05T17:51:11.153Z,13.20
2022-11-05T17:53:38.931Z,13.20
2022-11-05T17:56:10.376Z,13.20
2022-11-05T17:58:38.162Z,13.20
2022-11-05T18:01:06.604Z,13.20
2022-11-05T18:03:34.204Z,13.10
2022-11-05T18:06:05.632Z,13.10
2022-11-05T18:08:33.182Z,13.10
2022-11-05T18:11:00.255Z,13.10
2022-11-05T18:13:27.400Z,13.10
2022-11-05T18:15:55.017Z,13.10
2022-11-05T18:18:22.364Z,13.10
2022-11-05T18:20:49.691Z,13.10
2022-11-05T18:23:17.154Z,13.00
2022-11-05T18:25:46.747Z,13.00
2022-11-05T18:28:14.170Z,13.00
2022-11-05T18:30:42.205Z,13.10
2022-11-05T18:33:09.581Z,13.10
2022-11-05T18:35:46.423Z,13.10
2022-11-05T18:38:13.752Z,13.10
2022-11-05T18:40:40.888Z,13.10
2022-11-05T18:43:08.063Z,13.10
2022-11-05T18:45:37.587Z,13.00
2022-11-05T18:48:05.208Z,13.00
2022-11-05T18:50:32.331Z,13.10
2022-11-05T18:52:59.499Z,13.00
2022-11-05T18:55:26.718Z,13.00
2022-11-05T18:57:53.806Z,13.10
2022-11-05T19:00:21.301Z,13.10
2022-11-05T19:02:48.535Z,13.10
2022-11-05T19:05:28.999Z,13.10
2022-11-05T19:07:56.838Z,13.10
2022-11-05T19:10:24.003Z,13.10
2022-11-05T19:12:51.297Z,13.10
2022-11-05T19:15:18.466Z,13.10
2022-11-05T19:17:45.896Z,13.10
2022-11-05T19:20:15.663Z,13.10
2022-11-05T19:22:45.126Z,13.00
2022-11-05T19:25:15.145Z,13.10
2022-11-05T19:27:43.643Z,13.10
2022-11-05T19:30:11.269Z,13.10
2022-11-05T19:32:40.913Z,13.00
2022-11-05T19:35:10.614Z,13.00
2022-11-05T19:37:37.707Z,13.00
2022-11-05T19:40:05.308Z,13.10
2022-11-05T19:42:32.412Z,13.00
2022-11-05T19:45:11.543Z,13.10
2022-11-05T19:47:46.603Z,13.10
2022-11-05T19:50:16.078Z,13.10
2022-11-05T19:52:43.180Z,13.10
2022-11-05T19:55:12.619Z,13.10
2022-11-05T19:57:39.703Z,13.10
2022-11-05T20:00:07.624Z,13.10
2022-11-05T20:02:34.827Z,13.10
2022-11-05T20:05:02.044Z,13.10
2022-11-05T20:07:31.450Z,13.10
2022-11-05T20:09:58.576Z,13.10
2022-11-05T20:12:25.816Z,13.10
2022-11-05T20:14:52.960Z,13.00
2022-11-05T20:17:20.382Z,13.00
2022-11-05T20:19:47.534Z,13.00
2022-11-05T20:22:14.635Z,13.00
2022-11-05T20:24:41.891Z,13.00
2022-11-05T20:27:11.521Z,13.00
2022-11-05T20:29:38.629Z,13.00
2022-11-05T20:32:09.212Z,13.00
2022-11-05T20:34:36.325Z,13.00
2022-11-05T20:37:04.140Z,12.90
2022-11-05T20:39:33.641Z,12.90
2022-11-05T20:42:00.865Z,12.90
2022-11-05T20:44:28.072Z,12.90
2022-11-05T20:46:55.594Z,12.80
2022-11-05T20:49:25.693Z,12.80
2022-11-05T20:51:53.651Z,12.80
2022-11-05T20:54:20.774Z,12.80
2022-11-05T20:56:50.056Z,12.80
2022-11-05T20:59:17.846Z,12.70
2022-11-05T21:01:45.240Z,12.70
2022-11-05T21:04:12.463Z,12.70
2022-11-05T21:06:41.590Z,12.70
2022-11-05T21:09:08.693Z,12.70
2022-11-05T21:11:54.406Z,12.70
2022-11-05T21:14:21.816Z,12.70
2022-11-05T21:16:48.925Z,12.70
2022-11-05T21:19:16.066Z,12.60
2022-11-05T21:21:45.388Z,12.60
2022-11-05T21:24:12.527Z,12.60
2022-11-05T21:26:42.022Z,12.60
2022-11-05T21:29:09.226Z,12.60
2022-11-05T21:31:37.637Z,12.60
2022-11-05T21:34:05.090Z,12.60
2022-11-05T21:36:32.208Z,12.60
2022-11-05T21:38:59.530Z,12.50
2022-11-05T21:41:29.657Z,12.50
2022-11-05T21:43:56.784Z,12.50
2022-11-05T21:46:24.174Z,12.50
2022-11-05T21:48:51.278Z,12.50
2022-11-05T21:51:37.077Z,12.50
2022-11-05T21:54:22.822Z,12.50
2022-11-05T21:57:10.987Z,12.50
2022-11-05T21:59:55.195Z,12.50
2022-11-05T22:02:24.315Z,12.50
2022-11-05T22:04:53.143Z,12.50
2022-11-05T22:07:26.029Z,12.50
2022-11-05T22:09:53.354Z,12.50
2022-11-05T22:12:20.857Z,12.40
2022-11-05T22:14:48.034Z,12.50
2022-11-05T22:17:15.247Z,12.40
2022-11-05T22:19:42.548Z,12.40
2022-11-05T22:22:12.288Z,12.40
2022-11-05T22:24:40.318Z,12.40
2022-11-05T22:27:12.538Z,12.40
2022-11-05T22:29:39.752Z,12.40
2022-11-05T22:32:06.964Z,12.30
2022-11-05T22:34:34.098Z,12.30
2022-11-05T22:37:01.259Z,12.30
2022-11-05T22:39:28.465Z,12.30
2022-11-05T22:42:00.435Z,12.30
2022-11-05T22:44:32.454Z,12.30
2022-11-05T22:47:01.860Z,12.30
2022-11-05T22:49:31.495Z,12.30
2022-11-05T22:52:01.118Z,12.30
2022-11-05T22:54:28.344Z,12.20
2022-11-05T22:56:55.545Z,12.20
2022-11-05T22:59:22.744Z,12.20
2022-11-05T23:01:50.033Z,12.20
2022-11-05T23:04:17.269Z,12.20
2022-11-05T23:07:03.124Z,12.20
2022-11-05T23:09:52.151Z,12.20
2022-11-05T23:12:31.057Z,12.20
2022-11-05T23:15:00.285Z,12.10
2022-11-05T23:17:48.611Z,12.10
2022-11-05T23:20:37.542Z,12.20
2022-11-05T23:23:24.742Z,12.10
2022-11-05T23:25:57.666Z,12.10
2022-11-05T23:28:24.853Z,12.10
2022-11-05T23:31:24.189Z,12.20
2022-11-05T23:33:51.278Z,12.20
2022-11-05T23:36:41.405Z,12.20
2022-11-05T23:39:10.730Z,12.20
2022-11-05T23:41:58.570Z,12.20
2022-11-05T23:44:44.107Z,12.20
2022-11-05T23:47:29.574Z,12.10
2022-11-05T23:49:56.710Z,12.10
2022-11-05T23:52:23.771Z,12.10
2022-11-05T23:54:50.840Z,12.20
2022-11-05T23:57:17.948Z,12.20
2022-11-05T23:59:47.519Z,12.20
